createdAt,value
2018-10-05T00:01:31.369Z,102087.01
2018-10-05T00:04:01.273Z,102080.56
2018-10-05T00:06:31.165Z,102086.20
2018-10-05T00:09:01.143Z,102087.79
2018-10-05T00:11:31.032Z,102086.45
2018-10-05T00:14:00.961Z,102084.34
2018-10-05T00:16:30.972Z,102079.23
2018-10-05T00:19:00.843Z,102079.27
2018-10-05T00:21:30.818Z,102074.70
2018-10-05T00:24:01.029Z,102073.11
2018-10-05T00:26:31.269Z,102072.30
2018-10-05T00:29:01.212Z,102072.82
2018-10-05T00:31:31.098Z,102071.75
2018-10-05T00:34:01.004Z,102073.05
2018-10-05T00:36:31.131Z,102068.52
2018-10-05T00:39:01.096Z,102070.64
2018-10-05T00:41:31.257Z,102069.83
2018-10-05T00:44:01.351Z,102066.61
2018-10-05T00:49:05.069Z,102061.01
2018-10-05T00:51:34.909Z,102061.50
2018-10-05T00:54:05.121Z,102058.05
2018-10-05T00:56:35.003Z,102059.38
2018-10-05T00:59:05.009Z,102062.02
2018-10-05T01:01:34.933Z,102052.39
2018-10-05T01:04:05.221Z,102051.87
2018-10-05T01:06:35.164Z,102049.75
2018-10-05T01:09:06.377Z,102051.61
2018-10-05T01:11:36.420Z,102041.20
2018-10-05T01:14:06.581Z,102040.67
2018-10-05T01:16:36.528Z,102043.31
2018-10-05T01:19:07.003Z,102037.98
2018-10-05T01:21:36.961Z,102039.05
2018-10-05T01:24:07.132Z,102036.64
2018-10-05T01:26:37.229Z,102038.50
2018-10-05T01:29:07.577Z,102032.64
2018-10-05T01:31:37.356Z,102022.75
2018-10-05T01:34:07.144Z,102025.16
2018-10-05T01:36:36.988Z,102018.75
2018-10-05T01:39:08.228Z,102015.83
2018-10-05T01:41:38.120Z,102020.64
2018-10-05T01:44:07.945Z,102018.23
2018-10-05T01:46:37.844Z,102017.67
2018-10-05T01:49:07.762Z,102012.34
2018-10-05T01:51:38.511Z,102012.34
2018-10-05T01:54:08.769Z,102006.42
2018-10-05T01:56:38.652Z,102011.27
2018-10-05T01:59:08.505Z,102003.01
2018-10-05T02:01:38.403Z,101997.67
2018-10-05T02:04:08.264Z,101988.53
2018-10-05T02:06:38.116Z,101988.28
2018-10-05T02:09:08.133Z,101986.39
2018-10-05T02:11:38.237Z,101986.91
2018-10-05T02:14:08.164Z,101982.36
2018-10-05T02:16:37.959Z,101984.99
2018-10-05T02:19:07.951Z,101978.36
2018-10-05T02:21:38.350Z,101980.99
2018-10-05T02:24:08.324Z,101979.11
2018-10-05T02:26:38.237Z,101967.66
2018-10-05T02:29:08.456Z,101963.14
2018-10-05T02:31:38.510Z,101961.55
2018-10-05T02:34:08.370Z,101968.44
2018-10-05T02:36:38.300Z,101962.84
2018-10-05T02:39:11.706Z,101956.44
2018-10-05T02:41:41.845Z,101949.22
2018-10-05T02:44:11.879Z,101953.19
2018-10-05T02:46:41.915Z,101960.92
2018-10-05T02:49:11.795Z,101951.83
2018-10-05T02:51:41.848Z,101959.83
2018-10-05T02:54:11.621Z,101956.60
2018-10-05T02:56:41.744Z,101954.72
2018-10-05T02:59:11.708Z,101951.79
2018-10-05T03:02:54.676Z,101940.31
2018-10-05T03:05:24.637Z,101947.53
2018-10-05T03:07:54.634Z,101948.83
2018-10-05T03:10:24.596Z,101946.94
2018-10-05T03:12:54.503Z,101945.05
2018-10-05T03:15:24.546Z,101943.46
2018-10-05T03:17:54.388Z,101942.91
2018-10-05T03:20:24.601Z,101939.95
2018-10-05T03:22:54.486Z,101935.14
2018-10-05T03:25:24.416Z,101935.66
2018-10-05T03:27:54.258Z,101937.54
2018-10-05T03:30:24.183Z,101928.70
2018-10-05T03:32:54.091Z,101932.70
2018-10-05T03:35:24.033Z,101929.22
2018-10-05T03:37:54.228Z,101923.62
2018-10-05T03:40:24.176Z,101921.48
2018-10-05T03:42:53.985Z,101918.00
2018-10-05T03:45:23.778Z,101918.52
2018-10-05T03:47:53.879Z,101914.27
2018-10-05T03:50:23.952Z,101917.45
2018-10-05T03:52:54.248Z,101915.82
2018-10-05T03:55:24.130Z,101911.00
2018-10-05T03:57:53.945Z,101917.14
2018-10-05T04:00:23.773Z,101915.00
2018-10-05T04:02:53.575Z,101917.63
2018-10-05T04:05:23.821Z,101911.78
2018-10-05T04:07:54.129Z,101909.90
2018-10-05T04:10:24.245Z,101916.03
2018-10-05T04:12:54.419Z,101907.48
2018-10-05T04:15:24.292Z,101904.02
2018-10-05T04:17:54.213Z,101901.35
2018-10-05T04:20:24.173Z,101898.16
2018-10-05T04:22:54.002Z,101896.83
2018-10-05T04:25:23.791Z,101891.73
2018-10-05T04:27:53.649Z,101888.50
2018-10-05T04:30:23.581Z,101889.02
2018-10-05T04:32:53.561Z,101882.88
2018-10-05T04:35:23.730Z,101879.70
2018-10-05T04:37:53.927Z,101880.48
2018-10-05T04:40:23.952Z,101874.63
2018-10-05T04:42:53.860Z,101869.01
2018-10-05T04:45:23.751Z,101863.16
2018-10-05T04:47:53.657Z,101864.20
2018-10-05T04:50:23.569Z,101863.34
2018-10-05T04:52:53.753Z,101856.87
2018-10-05T04:55:23.577Z,101853.38
2018-10-05T04:57:53.375Z,101852.53
2018-10-05T05:00:23.625Z,101854.88
2018-10-05T05:02:53.760Z,101855.39
2018-10-05T05:05:23.650Z,101858.01
2018-10-05T05:07:53.628Z,101859.03
2018-10-05T05:10:23.556Z,101856.34
2018-10-05T05:12:53.489Z,101854.74
2018-10-05T05:15:23.973Z,101860.33
2018-10-05T05:17:53.908Z,101849.67
2018-10-05T05:20:24.088Z,101848.59
2018-10-05T05:22:54.123Z,101844.36
2018-10-05T05:25:24.052Z,101840.66
2018-10-05T05:27:53.854Z,101844.70
2018-10-05T05:30:24.140Z,101843.37
2018-10-05T05:32:54.341Z,101849.52
2018-10-05T05:35:24.232Z,101846.60
2018-10-05T05:37:54.142Z,101847.41
2018-10-05T05:40:24.223Z,101847.41
2018-10-05T05:42:54.100Z,101843.16
2018-10-05T05:45:24.246Z,101842.13
2018-10-05T05:47:54.106Z,101843.42
2018-10-05T05:50:24.342Z,101846.08
2018-10-05T05:52:54.291Z,101843.33
2018-10-05T05:55:24.137Z,101842.04
2018-10-05T05:57:54.545Z,101838.05
2018-10-05T06:00:24.447Z,101838.82
2018-10-05T06:02:54.466Z,101835.91
2018-10-05T06:05:24.752Z,101837.29
2018-10-05T06:07:54.997Z,101836.52
2018-10-05T06:10:25.021Z,101836.08
2018-10-05T06:12:55.272Z,101843.30
2018-10-05T06:15:25.261Z,101836.42
2018-10-05T06:17:55.220Z,101843.93
2018-10-05T06:20:25.052Z,101830.36
2018-10-05T06:22:55.184Z,101837.61
2018-10-05T06:25:25.443Z,101831.25
2018-10-05T06:27:55.581Z,101833.20
2018-10-05T06:30:25.895Z,101840.96
2018-10-05T06:32:56.103Z,101842.33
2018-10-05T06:35:26.263Z,101841.81
2018-10-05T06:37:56.316Z,101841.03
2018-10-05T06:40:26.163Z,101843.44
2018-10-05T06:42:56.189Z,101836.83
2018-10-05T06:45:26.361Z,101828.37
2018-10-05T06:47:56.202Z,101833.20
2018-10-05T06:50:26.451Z,101831.66
2018-10-05T06:52:56.391Z,101844.77
2018-10-05T06:55:26.734Z,101840.04
2018-10-05T06:57:56.673Z,101833.41
2018-10-05T07:00:26.673Z,101830.27
2018-10-05T07:02:56.559Z,101838.55
2018-10-05T07:05:26.492Z,101835.38
2018-10-05T07:07:56.609Z,101836.20
2018-10-05T07:10:26.576Z,101837.54
2018-10-05T07:12:56.553Z,101839.42
2018-10-05T07:15:26.632Z,101839.42
2018-10-05T07:17:56.753Z,101839.16
2018-10-05T07:20:27.108Z,101843.95
2018-10-05T07:22:56.984Z,101835.39
2018-10-05T07:25:27.111Z,101839.13
2018-10-05T07:27:57.134Z,101840.73
2018-10-05T07:30:27.224Z,101847.39
2018-10-05T07:32:57.030Z,101842.83
2018-10-05T07:35:26.990Z,101832.91
2018-10-05T07:37:56.982Z,101835.53
2018-10-05T07:40:27.387Z,101838.17
2018-10-05T07:42:57.357Z,101833.86
2018-10-05T07:45:27.153Z,101831.66
2018-10-05T07:47:57.346Z,101833.48
2018-10-05T07:50:27.355Z,101830.19
2018-10-05T07:52:57.409Z,101827.16
2018-10-05T07:55:27.749Z,101826.05
2018-10-05T07:57:58.054Z,101834.02
2018-10-05T08:00:27.983Z,101830.69
2018-10-05T08:02:57.890Z,101831.94
2018-10-05T08:05:27.955Z,101831.84
2018-10-05T08:07:57.904Z,101828.55
2018-10-05T08:10:27.826Z,101826.86
2018-10-05T08:12:57.944Z,101830.27
2018-10-05T08:15:28.103Z,101835.27
2018-10-05T08:17:58.355Z,101828.17
2018-10-05T08:20:28.517Z,101819.96
2018-10-05T08:22:58.394Z,101831.73
2018-10-05T08:25:28.273Z,101820.69
2018-10-05T08:27:58.147Z,101820.60
2018-10-05T08:30:27.967Z,101812.59
2018-10-05T08:32:57.913Z,101817.38
2018-10-05T08:35:28.004Z,101814.14
2018-10-05T08:37:57.952Z,101808.81
2018-10-05T08:40:27.790Z,101808.49
2018-10-05T08:42:57.720Z,101802.75
2018-10-05T08:45:27.709Z,101801.02
2018-10-05T08:47:57.713Z,101798.73
2018-10-05T08:50:27.662Z,101796.02
2018-10-05T08:52:57.650Z,101795.44
2018-10-05T08:55:27.589Z,101795.86
2018-10-05T08:57:57.489Z,101793.84
2018-10-05T09:00:27.481Z,101793.97
2018-10-05T09:02:57.355Z,101788.81
2018-10-05T09:05:27.355Z,101783.73
2018-10-05T09:07:58.028Z,101779.85
2018-10-05T09:10:28.015Z,101788.88
2018-10-05T09:12:57.988Z,101776.24
2018-10-05T09:15:28.076Z,101776.89
2018-10-05T09:17:58.275Z,101772.77
2018-10-05T09:20:28.142Z,101772.11
2018-10-05T09:22:58.252Z,101761.93
2018-10-05T09:25:28.258Z,101756.55
2018-10-05T09:27:58.120Z,101755.67
2018-10-05T09:30:28.337Z,101756.02
2018-10-05T09:32:58.225Z,101763.78
2018-10-05T09:35:28.532Z,101751.06
2018-10-05T09:37:58.721Z,101747.23
2018-10-05T09:40:28.911Z,101746.28
2018-10-05T09:42:58.929Z,101736.22
2018-10-05T09:45:28.821Z,101729.73
2018-10-05T09:47:58.884Z,101721.43
2018-10-05T09:50:28.781Z,101714.97
2018-10-05T09:52:58.635Z,101711.77
2018-10-05T09:55:28.537Z,101709.92
2018-10-05T09:57:59.043Z,101700.81
2018-10-05T10:00:34.089Z,101699.61
2018-10-05T10:03:08.912Z,101697.39
2018-10-05T10:05:38.828Z,101695.61
2018-10-05T10:08:09.102Z,101687.87
2018-10-05T10:10:39.114Z,101689.33
2018-10-05T10:13:09.290Z,101681.87
2018-10-05T10:15:39.177Z,101680.89
2018-10-05T10:18:09.090Z,101684.63
2018-10-05T10:20:38.904Z,101677.58
2018-10-05T10:23:09.181Z,101673.54
2018-10-05T10:25:39.273Z,101674.53
2018-10-05T10:28:09.273Z,101677.52
2018-10-05T10:30:39.174Z,101670.47
2018-10-05T10:33:09.389Z,101667.91
2018-10-05T10:35:41.821Z,101665.21
2018-10-05T10:38:16.238Z,101652.14
2018-10-05T10:40:48.111Z,101649.05
2018-10-05T10:43:19.867Z,101644.95
2018-10-05T10:45:51.831Z,101644.47
2018-10-05T10:48:23.349Z,101646.36
2018-10-05T10:50:55.603Z,101641.41
2018-10-05T10:53:29.281Z,101638.43
2018-10-05T10:56:00.928Z,101633.79
2018-10-05T10:58:32.394Z,101626.27
2018-10-05T11:01:36.673Z,101615.83
2018-10-05T11:04:08.477Z,101611.00
2018-10-05T11:06:40.815Z,101602.42
2018-10-05T11:09:13.431Z,101603.17
2018-10-05T11:11:43.627Z,101591.28
2018-10-05T11:14:15.530Z,101590.09
2018-10-05T11:16:47.071Z,101585.41
2018-10-05T11:19:21.634Z,101579.16
2018-10-05T11:21:53.095Z,101572.19
2018-10-05T11:24:28.141Z,101567.72
2018-10-05T11:26:59.504Z,101561.95
2018-10-05T11:29:32.077Z,101560.44
2018-10-05T11:32:04.543Z,101555.69
2018-10-05T11:34:36.013Z,101556.78
2018-10-05T11:37:07.672Z,101549.33
2018-10-05T11:39:38.989Z,101554.02
2018-10-05T11:42:11.107Z,101547.33
2018-10-05T11:44:42.850Z,101540.36
2018-10-05T11:47:16.011Z,101540.27
2018-10-05T11:49:48.112Z,101538.84
2018-10-05T11:52:20.116Z,101529.78
2018-10-05T11:54:52.515Z,101528.11
2018-10-05T11:57:24.089Z,101524.93
2018-10-05T11:59:57.292Z,101515.73
2018-10-05T12:02:28.942Z,101516.05
2018-10-05T12:05:00.919Z,101514.59
2018-10-05T12:07:34.189Z,101509.64
2018-10-05T12:10:06.347Z,101505.81
2018-10-05T12:12:39.339Z,101493.16
2018-10-05T12:15:10.616Z,101491.29
2018-10-05T12:17:41.533Z,101491.44
2018-10-05T12:20:12.481Z,101491.09
2018-10-05T12:22:43.099Z,101485.43
2018-10-05T12:25:14.153Z,101478.34
2018-10-05T12:27:44.960Z,101472.06
2018-10-05T12:30:15.541Z,101470.48
2018-10-05T12:32:45.881Z,101466.95
2018-10-05T12:35:16.208Z,101461.36
2018-10-05T12:37:47.711Z,101457.44
2018-10-05T12:40:24.749Z,101452.66
2018-10-05T12:42:55.609Z,101447.45
2018-10-05T12:45:26.774Z,101446.41
2018-10-05T12:47:57.802Z,101443.78
2018-10-05T12:50:28.962Z,101437.72
2018-10-05T12:53:16.121Z,101444.52
2018-10-05T12:55:46.814Z,101439.12
2018-10-05T12:58:17.834Z,101438.45
2018-10-05T13:00:49.631Z,101434.91
2018-10-05T13:03:20.513Z,101431.93
2018-10-05T13:05:51.061Z,101425.83
2018-10-05T13:08:24.104Z,101425.34
2018-10-05T13:10:54.548Z,101419.31
2018-10-05T13:13:24.791Z,101414.68
2018-10-05T13:15:55.061Z,101413.28
2018-10-05T13:18:25.792Z,101409.20
2018-10-05T13:26:46.364Z,101406.90
2018-10-05T13:36:09.571Z,101387.48
2018-10-05T13:38:39.425Z,101386.22
2018-10-05T13:41:09.583Z,101375.09
2018-10-05T13:43:39.521Z,101375.76
2018-10-05T13:46:09.448Z,101366.69
2018-10-05T13:48:39.501Z,101367.84
2018-10-05T13:51:09.428Z,101368.79
2018-10-05T13:53:39.324Z,101361.41
2018-10-05T13:56:09.233Z,101356.06
2018-10-05T13:58:39.085Z,101357.83
2018-10-05T14:01:09.313Z,101341.81
2018-10-05T14:03:39.156Z,101344.11
2018-10-05T14:06:09.202Z,101340.86
2018-10-05T14:08:39.259Z,101337.46
2018-10-05T14:11:09.192Z,101336.62
2018-10-05T14:13:39.180Z,101334.17
2018-10-05T14:16:09.118Z,101337.46
2018-10-05T14:18:39.128Z,101337.03
2018-10-05T14:21:09.165Z,101324.40
2018-10-05T14:23:39.030Z,101320.00
2018-10-05T14:26:09.022Z,101315.28
2018-10-05T14:28:38.908Z,101310.21
2018-10-05T14:31:08.965Z,101306.60
2018-10-05T14:33:38.817Z,101305.91
2018-10-05T14:36:08.720Z,101302.97
2018-10-05T14:38:38.810Z,101304.67
2018-10-05T14:41:09.055Z,101300.72
2018-10-05T14:43:38.956Z,101297.23
2018-10-05T14:46:08.910Z,101291.42
2018-10-05T14:48:39.186Z,101294.35
2018-10-05T14:51:09.588Z,101283.50
2018-10-05T14:53:39.597Z,101289.35
2018-10-05T14:56:09.844Z,101284.61
2018-10-05T14:58:40.063Z,101273.67
2018-10-05T15:01:09.998Z,101279.84
2018-10-05T15:03:39.931Z,101266.54
2018-10-05T15:06:10.102Z,101256.55
2018-10-05T15:08:39.957Z,101257.53
2018-10-05T15:11:09.898Z,101255.84
2018-10-05T15:13:39.866Z,101251.53
2018-10-05T15:16:09.985Z,101253.69
2018-10-05T15:18:40.030Z,101242.19
2018-10-05T15:21:10.079Z,101239.58
2018-10-05T15:23:39.988Z,101241.94
2018-10-05T15:26:10.016Z,101239.66
2018-10-05T15:28:40.381Z,101244.14
2018-10-05T15:31:10.668Z,101227.58
2018-10-05T15:33:40.717Z,101228.25
2018-10-05T15:36:10.640Z,101220.36
2018-10-05T15:38:40.852Z,101223.61
2018-10-05T15:41:11.214Z,101214.80
2018-10-05T15:43:41.287Z,101217.61
2018-10-05T15:46:12.264Z,101216.23
2018-10-05T15:48:42.153Z,101215.45
2018-10-05T15:51:12.058Z,101216.81
2018-10-05T15:53:42.035Z,101223.53
2018-10-05T15:56:11.945Z,101220.56
2018-10-05T15:58:41.972Z,101213.00
2018-10-05T16:01:12.130Z,101210.30
2018-10-05T16:03:42.252Z,101215.10
2018-10-05T16:06:12.185Z,101220.08
2018-10-05T16:08:42.314Z,101225.34
2018-10-05T16:11:12.217Z,101231.25
2018-10-05T16:13:42.366Z,101227.09
2018-10-05T16:16:12.522Z,101228.95
2018-10-05T16:18:42.502Z,101226.44
2018-10-05T16:21:12.699Z,101233.31
2018-10-05T16:23:42.655Z,101228.32
2018-10-05T16:26:12.506Z,101231.47
2018-10-05T16:28:42.509Z,101232.89
2018-10-05T16:31:12.961Z,101228.23
2018-10-05T16:33:42.763Z,101228.26
2018-10-05T16:36:12.778Z,101227.90
2018-10-05T16:38:42.805Z,101227.21
2018-10-05T16:41:12.692Z,101231.59
2018-10-05T16:43:42.713Z,101226.82
2018-10-05T16:46:12.616Z,101230.36
2018-10-05T16:48:42.544Z,101232.88
2018-10-05T16:51:12.401Z,101227.20
2018-10-05T16:53:42.456Z,101230.63
2018-10-05T16:56:12.461Z,101228.11
2018-10-05T16:58:42.377Z,101222.42
2018-10-05T17:01:12.350Z,101224.59
2018-10-05T17:03:42.171Z,101220.36
2018-10-05T17:06:12.169Z,101225.20
2018-10-05T17:08:46.105Z,101228.14
2018-10-05T17:11:16.353Z,101221.31
2018-10-05T17:13:46.224Z,101220.79
2018-10-05T17:16:17.075Z,101220.16
2018-10-05T17:18:46.958Z,101221.13
2018-10-05T17:21:17.234Z,101217.57
2018-10-05T17:23:47.152Z,101215.11
2018-10-05T17:26:17.166Z,101214.56
2018-10-05T17:28:47.016Z,101211.88
2018-10-05T17:31:16.919Z,101212.75
2018-10-05T17:33:46.784Z,101204.28
2018-10-05T17:36:16.854Z,101206.17
2018-10-05T17:38:46.778Z,101204.21
2018-10-05T17:41:16.935Z,101206.87
2018-10-05T17:43:46.956Z,101208.42
2018-10-05T17:46:16.908Z,101212.13
2018-10-05T17:48:47.005Z,101207.76
2018-10-05T17:51:17.067Z,101204.36
2018-10-05T17:53:47.252Z,101211.17
2018-10-05T17:56:17.405Z,101211.44
2018-10-05T17:58:47.203Z,101212.76
2018-10-05T18:01:17.278Z,101210.47
2018-10-05T18:03:47.053Z,101201.74
2018-10-05T18:06:17.071Z,101200.05
2018-10-05T18:08:46.899Z,101200.37
2018-10-05T18:11:16.917Z,101198.05
2018-10-05T18:13:46.810Z,101189.16
2018-10-05T18:16:16.957Z,101191.73
2018-10-05T18:18:47.044Z,101186.63
2018-10-05T18:21:17.033Z,101187.08
2018-10-05T18:23:46.967Z,101180.78
2018-10-05T18:26:17.184Z,101188.79
2018-10-05T18:28:46.972Z,101183.86
2018-10-05T18:31:16.837Z,101183.31
2018-10-05T18:33:46.811Z,101183.78
2018-10-05T18:36:17.142Z,101188.63
2018-10-05T18:38:47.046Z,101183.38
2018-10-05T18:41:16.925Z,101179.35
2018-10-05T18:43:46.775Z,101176.80
2018-10-05T18:46:16.633Z,101174.78
2018-10-05T18:48:46.681Z,101177.18
2018-10-05T18:51:16.766Z,101168.98
2018-10-05T18:53:46.908Z,101162.59
2018-10-05T18:56:33.550Z,101164.00
2018-10-05T18:59:03.737Z,101164.00
2018-10-05T19:01:34.175Z,101155.95
2018-10-05T19:04:04.276Z,101151.38
2018-10-05T19:06:34.388Z,101154.89
2018-10-05T19:09:05.614Z,101151.13
2018-10-05T19:11:36.638Z,101154.71
2018-10-05T19:14:06.618Z,101150.27
2018-10-05T19:16:36.710Z,101154.92
2018-10-05T19:19:07.050Z,101150.13
2018-10-05T19:21:37.315Z,101150.09
2018-10-05T19:24:07.340Z,101149.28
2018-10-05T19:26:37.530Z,101147.50
2018-10-05T19:29:07.430Z,101140.33
2018-10-05T19:31:37.454Z,101144.09
2018-10-05T19:34:07.684Z,101143.48
2018-10-05T19:36:37.656Z,101139.84
2018-10-05T19:39:10.644Z,101138.37
2018-10-05T19:41:41.525Z,101138.86
2018-10-05T19:44:11.885Z,101133.48
2018-10-05T19:46:42.154Z,101132.37
2018-10-05T19:49:12.101Z,101131.03
2018-10-05T19:51:42.057Z,101132.61
2018-10-05T19:54:11.973Z,101133.67
2018-10-05T19:56:41.844Z,101124.01
2018-10-05T19:59:11.895Z,101130.91
2018-10-05T20:01:41.757Z,101133.59
2018-10-05T20:04:11.760Z,101127.14
2018-10-05T20:06:41.722Z,101121.68
2018-10-05T20:09:11.624Z,101128.17
2018-10-05T20:11:42.219Z,101127.59
2018-10-05T20:14:12.300Z,101132.37
2018-10-05T20:16:42.281Z,101127.55
2018-10-05T20:19:12.218Z,101131.58
2018-10-05T20:21:42.085Z,101129.73
2018-10-05T20:24:12.078Z,101126.88
2018-10-05T20:26:42.433Z,101130.91
2018-10-05T20:29:12.335Z,101127.37
2018-10-05T20:31:42.291Z,101130.18
2018-10-05T20:34:12.604Z,101130.00
2018-10-05T20:36:42.750Z,101128.50
2018-10-05T20:39:12.441Z,101126.17
2018-10-05T20:41:42.378Z,101126.67
2018-10-05T20:44:12.382Z,101126.84
2018-10-05T20:46:42.445Z,101128.49
2018-10-05T20:49:12.318Z,101127.69
2018-10-05T20:51:42.387Z,101123.02
2018-10-05T20:54:12.496Z,101128.66
2018-10-05T20:56:42.636Z,101127.32
2018-10-05T20:59:12.760Z,101125.44
2018-10-05T21:01:42.781Z,101133.48
2018-10-05T21:04:12.801Z,101131.92
2018-10-05T21:06:43.226Z,101135.45
2018-10-05T21:09:13.293Z,101132.27
2018-10-05T21:11:43.408Z,101131.42
2018-10-05T21:14:13.374Z,101128.51
2018-10-05T21:16:43.270Z,101125.56
2018-10-05T21:19:13.235Z,101128.02
2018-10-05T21:21:43.198Z,101124.22
2018-10-05T21:24:13.145Z,101122.88
2018-10-05T21:26:43.165Z,101121.30
2018-10-05T21:29:12.933Z,101123.80
2018-10-05T21:31:43.041Z,101122.27
2018-10-05T21:34:12.915Z,101126.16
2018-10-05T21:36:42.781Z,101122.75
2018-10-05T21:39:12.785Z,101122.83
2018-10-05T21:41:42.606Z,101118.08
2018-10-05T21:44:12.663Z,101129.42
2018-10-05T21:46:42.604Z,101128.13
2018-10-05T21:49:12.613Z,101123.87
2018-10-05T21:51:42.643Z,101122.83
2018-10-05T21:54:12.720Z,101125.25
2018-10-05T21:56:42.698Z,101127.16
2018-10-05T21:59:12.627Z,101116.97
2018-10-05T22:01:42.448Z,101126.70
2018-10-05T22:04:12.656Z,101130.50
2018-10-05T22:06:42.868Z,101126.78
2018-10-05T22:09:12.971Z,101131.64
2018-10-05T22:11:43.141Z,101124.75
2018-10-05T22:14:13.339Z,101120.23
2018-10-05T22:16:43.329Z,101119.27
2018-10-05T22:19:13.337Z,101119.53
2018-10-05T22:21:43.289Z,101121.18
2018-10-05T22:24:13.216Z,101115.59
2018-10-05T22:26:43.204Z,101116.43
2018-10-05T22:29:13.014Z,101118.58
2018-10-05T22:31:43.046Z,101116.20
2018-10-05T22:34:12.923Z,101113.25
2018-10-05T22:36:42.871Z,101107.11
2018-10-05T22:39:12.785Z,101107.39
2018-10-05T22:41:42.656Z,101112.02
2018-10-05T22:44:12.743Z,101113.97
2018-10-05T22:46:42.646Z,101112.43
2018-10-05T22:49:12.449Z,101108.95
2018-10-05T22:51:42.221Z,101109.25
2018-10-05T22:54:12.140Z,101109.32
2018-10-05T22:56:42.108Z,101102.02
2018-10-05T22:59:11.979Z,101109.82
2018-10-05T23:01:41.829Z,101102.96
2018-10-05T23:04:11.915Z,101105.14
2018-10-05T23:06:42.053Z,101101.92
2018-10-05T23:09:12.290Z,101099.05
2018-10-05T23:11:42.206Z,101100.73
2018-10-05T23:14:12.161Z,101099.66
2018-10-05T23:16:42.048Z,101093.30
2018-10-05T23:19:11.942Z,101099.76
2018-10-05T23:21:41.890Z,101095.47
2018-10-05T23:24:11.767Z,101094.40
2018-10-05T23:26:41.856Z,101087.80
2018-10-05T23:29:11.662Z,101090.59
2018-10-05T23:31:41.521Z,101083.89
2018-10-05T23:34:11.523Z,101082.59
2018-10-05T23:36:41.589Z,101083.39
2018-10-05T23:39:12.096Z,101084.30
2018-10-05T23:41:41.931Z,101077.09
2018-10-05T23:44:12.019Z,101082.45
2018-10-05T23:46:41.909Z,101078.13
2018-10-05T23:49:11.792Z,101080.91
2018-10-05T23:51:41.646Z,101081.25
2018-10-05T23:54:11.782Z,101079.98
2018-10-05T23:56:41.677Z,101077.10
2018-10-05T23:59:11.447Z,101079.52
